Etusivu
METAR-TAF:

METAR-TAF

Lentoasemat :

Vladivostok, Venäjä

Vladivostokin kansainvälinen lentoasema

Leveyspiiri: 43-07N, Pituuspiiri: 131-56E, korkeus merenpinnasta: 184 m

Tämänhetkinen sää

Tämä raportti tehtiin 32 minuuttia sitten, kello 01.00 UTC
Tuuli 8 kn luoteesta
Lämpötila -10°C
Kosteus 33%
Ilmanpaine 1026 hPa
Näkyvyys 10 km tai enemmän

METAR: UHWW 180100Z 32004MPS 9999 NSC M10/M23 Q1026 R25L/0///70 NOSIG RMK QFE769

Aika: 11:32 (01:32 UTC)

Sääennuste

Tämä raportti tehtiin 2 tuntia ja 34 minuuttia sitten, kello 22.58 UTC
Ennuste voimassa 18. päivästä klo 00 UTC - 18. päivään klo 24 UTC
Tuuli 6 kn pohjoisesta
Näkyvyys 10 km tai enemmän
Ajoittain
18. päivästä klo 00 UTC - 18. päivään klo 09 UTC
Tuuli 19 kn pohjoisen/luoteesta
Hajanaisia pilviä 3000 ft:n korkeudessa
Tulossa
18. päivästä klo 11 UTC - 18. päivään klo 13 UTC
Tuuli 2 kn eri suunnista

TAF: UHWW 172258Z 1800/1824 35003MPS 9999 NSC TEMPO 1800/1809 34010MPS SCT030 BECMG 1811/1813 VRB01MPS

Säähavainnot ja -ennusteet yli 4000 lentoasemalta (METAR- ja TAF-raportit).

Käytössä olevat sääasemat on merkitty karttaan keltaisilla ja punaisilla pisteillä.

Aseta hiiri pisteen päälle nähdäksesi sääaseman nimen.

Klikkaa sitten nähdäksesi säähavainnot ja -ennusteet.

Kartan vaihtaminen: klikkaa mustalla rastilla varustettuja vihreitä pisteitä, niin voit zoomata sisään; viivalla varustettua vihreää pistettä, niin voit zoomata ulos tai vihreitä nuolia, niin pääset viereisille kartoille.


METAR-TAF: